Time;durP1;ratioP1;P1;durP2;ratioP2;P2;SDS_P1;SDS_P2;PMS_P1;PMS_P2;Temp;Humidity;BMP_temperature;BMP_pressure;BME280_temperature;BME280_humidity;BME280_pressure;Samples;Min_cycle;Max_cycle;Signal;HPM_P1;HPM_P2
2023/04/16 00:00:10;;;;;;;515.03;83.67;;;9.00;99.90;;;;;;5090559;28;20223;-50
2023/04/16 00:02:38;;;;;;;1999.90;326.13;;;9.00;99.90;;;;;;5089917;28;20324;-50
2023/04/16 00:05:06;;;;;;;1983.67;279.40;;;9.00;99.90;;;;;;5090113;28;20216;-50
2023/04/16 00:07:34;;;;;;;1970.13;245.90;;;9.00;99.90;;;;;;5090054;28;20731;-50
2023/04/16 00:10:02;;;;;;;662.20;117.47;;;9.00;99.90;;;;;;5076162;28;20311;-50
2023/04/16 00:12:30;;;;;;;1999.90;263.77;;;9.00;99.90;;;;;;5089995;28;20234;-49
2023/04/16 00:15:00;;;;;;;393.27;80.27;;;9.00;99.90;;;;;;5089835;28;20333;-50
2023/04/16 00:17:28;;;;;;;549.20;103.20;;;9.00;99.90;;;;;;5089976;28;20679;-49
2023/04/16 00:19:56;;;;;;;492.43;72.43;;;9.10;99.90;;;;;;5089766;28;20231;-49
2023/04/16 00:22:24;;;;;;;367.43;71.80;;;9.10;99.90;;;;;;5079523;28;20322;-49
2023/04/16 00:24:52;;;;;;;578.53;103.77;;;9.10;99.90;;;;;;5108897;28;20294;-48
2023/04/16 00:27:20;;;;;;;1999.90;320.17;;;9.10;99.90;;;;;;5110200;28;20231;-50
2023/04/16 00:29:48;;;;;;;1999.90;305.47;;;9.00;99.90;;;;;;5110174;28;20200;-49
2023/04/16 00:32:17;;;;;;;1666.13;225.77;;;9.00;99.90;;;;;;5109965;28;20206;-50
2023/04/16 00:34:45;;;;;;;1999.90;318.43;;;9.00;99.90;;;;;;5109975;28;20211;-49
2023/04/16 00:37:13;;;;;;;1999.90;297.80;;;8.90;99.90;;;;;;5110355;28;20668;-50
2023/04/16 00:39:41;;;;;;;1764.13;226.67;;;8.90;99.90;;;;;;5110015;28;20245;-50
2023/04/16 00:42:10;;;;;;;1999.90;239.43;;;9.00;99.90;;;;;;5101425;28;20261;-50
2023/04/16 00:44:38;;;;;;;1999.90;608.70;;;8.90;99.90;;;;;;5109853;28;20241;-49
2023/04/16 00:47:07;;;;;;;1999.90;347.17;;;8.90;99.90;;;;;;5109231;28;20239;-50
2023/04/16 00:49:36;;;;;;;954.90;168.53;;;9.00;99.90;;;;;;5105721;28;20240;-51
2023/04/16 00:52:04;;;;;;;1766.97;217.80;;;9.00;99.90;;;;;;5105527;28;20289;-50
2023/04/16 00:54:33;;;;;;;1499.80;172.00;;;9.00;99.90;;;;;;5100153;28;20773;-49
2023/04/16 00:57:01;;;;;;;982.07;166.67;;;9.00;99.90;;;;;;5080358;28;20303;-50
2023/04/16 00:59:29;;;;;;;1999.90;270.03;;;9.10;99.90;;;;;;5089182;28;20277;-49
2023/04/16 01:01:57;;;;;;;1999.90;353.93;;;9.10;99.90;;;;;;5088988;28;20655;-49
2023/04/16 01:04:26;;;;;;;1041.53;164.13;;;9.00;99.90;;;;;;5089224;28;20281;-50
2023/04/16 01:06:56;;;;;;;1999.90;296.23;;;9.00;99.90;;;;;;5089276;28;20208;-49
2023/04/16 01:09:23;;;;;;;1929.80;252.37;;;9.00;99.90;;;;;;5089135;28;20207;-49
2023/04/16 01:11:51;;;;;;;1999.90;328.23;;;9.00;99.90;;;;;;5089033;28;20331;-50
2023/04/16 01:14:19;;;;;;;1999.90;724.33;;;9.00;99.90;;;;;;5088695;28;20238;-51
2023/04/16 01:16:47;;;;;;;811.37;130.13;;;9.00;99.90;;;;;;5088981;28;20213;-49
2023/04/16 01:19:15;;;;;;;1228.50;171.23;;;9.00;99.90;;;;;;5089101;28;20291;-49
2023/04/16 01:21:45;;;;;;;1999.90;464.20;;;9.00;99.90;;;;;;5088964;28;20219;-50
2023/04/16 01:24:13;;;;;;;1999.90;271.97;;;8.90;99.90;;;;;;5093565;28;20224;-49
2023/04/16 01:26:41;;;;;;;1801.10;247.60;;;8.90;99.90;;;;;;5108965;28;20295;-49
2023/04/16 01:29:09;;;;;;;1427.90;177.87;;;9.00;99.90;;;;;;5091557;28;20669;-50
2023/04/16 01:31:37;;;;;;;1999.90;286.27;;;9.00;99.90;;;;;;5109484;28;20235;-49
2023/04/16 01:34:06;;;;;;;1999.90;335.37;;;9.00;99.90;;;;;;5093710;28;20235;-50
2023/04/16 01:36:34;;;;;;;86.37;41.67;;;9.00;99.90;;;;;;5096840;28;20211;-50
2023/04/16 01:39:03;;;;;;;808.27;134.33;;;9.00;99.90;;;;;;5109205;28;20686;-49
2023/04/16 01:41:31;;;;;;;760.60;128.53;;;9.00;99.90;;;;;;5096655;28;20310;-50
2023/04/16 01:43:59;;;;;;;1999.90;371.77;;;9.10;99.90;;;;;;5104119;28;20306;-50
2023/04/16 01:46:28;;;;;;;145.53;50.50;;;9.00;99.90;;;;;;5108898;28;20618;-50
2023/04/16 01:48:57;;;;;;;781.47;120.97;;;9.00;99.90;;;;;;5097647;28;20632;-50
2023/04/16 01:51:26;;;;;;;1747.80;188.63;;;9.10;99.90;;;;;;5107522;28;20294;-50
2023/04/16 01:53:54;;;;;;;1938.00;291.63;;;9.10;99.90;;;;;;5102057;28;20230;-49
2023/04/16 01:56:24;;;;;;;1145.23;180.63;;;9.00;99.90;;;;;;5074376;28;20234;-50
2023/04/16 01:58:52;;;;;;;1999.90;376.23;;;9.10;99.90;;;;;;5088536;28;20215;-49
2023/04/16 02:01:20;;;;;;;721.53;122.80;;;9.10;99.90;;;;;;5088624;28;20219;-50
2023/04/16 02:03:48;;;;;;;1098.13;156.83;;;9.10;99.90;;;;;;5088649;28;20239;-50
2023/04/16 02:06:17;;;;;;;551.40;95.03;;;9.10;99.90;;;;;;5088566;28;20677;-49
2023/04/16 02:08:45;;;;;;;407.73;81.90;;;9.10;99.90;;;;;;5088577;28;20211;-49
2023/04/16 02:11:12;;;;;;;135.13;69.53;;;9.10;99.90;;;;;;5088667;28;20211;-49
2023/04/16 02:13:42;;;;;;;153.33;44.13;;;9.10;99.90;;;;;;5088420;28;20319;-50
2023/04/16 02:16:10;;;;;;;1726.17;238.10;;;9.10;99.90;;;;;;5088813;28;20233;-50
2023/04/16 02:18:38;;;;;;;1438.07;193.60;;;9.10;99.90;;;;;;5088764;28;20199;-49
2023/04/16 02:21:06;;;;;;;1300.90;196.83;;;9.10;99.90;;;;;;5088463;28;20772;-48
2023/04/16 02:23:34;;;;;;;1999.90;421.93;;;9.10;99.90;;;;;;5088595;28;20730;-50
2023/04/16 02:26:03;;;;;;;110.60;58.77;;;9.10;99.90;;;;;;5088615;28;20204;-50
2023/04/16 02:28:31;;;;;;;1999.90;516.37;;;9.10;99.90;;;;;;5088595;28;20291;-50
2023/04/16 02:31:00;;;;;;;133.23;61.73;;;9.10;99.90;;;;;;5088609;28;20578;-50
2023/04/16 02:33:30;;;;;;;537.70;116.60;;;9.10;99.90;;;;;;5088386;28;20226;-50
2023/04/16 02:35:59;;;;;;;811.93;148.93;;;9.10;99.90;;;;;;5088760;28;20232;-50
2023/04/16 02:38:27;;;;;;;207.73;68.57;;;9.10;99.90;;;;;;5090828;28;20208;-49
2023/04/16 02:40:55;;;;;;;379.53;86.30;;;9.20;99.90;;;;;;5092067;28;20260;-49
2023/04/16 02:43:23;;;;;;;1246.90;214.77;;;9.20;99.90;;;;;;5091790;28;20260;-49
2023/04/16 02:45:51;;;;;;;1122.00;179.73;;;9.20;99.90;;;;;;5091947;28;20284;-50
2023/04/16 02:48:20;;;;;;;1892.03;324.87;;;9.20;99.90;;;;;;5091453;28;20205;-49
2023/04/16 02:50:48;;;;;;;1999.90;295.67;;;9.20;99.90;;;;;;5091753;28;20234;-50
2023/04/16 02:53:16;;;;;;;946.93;169.30;;;9.20;99.90;;;;;;5090741;28;20314;-50
2023/04/16 02:55:51;;;;;;;1402.63;198.17;;;9.20;99.90;;;;;;5075164;28;20235;-50
2023/04/16 02:58:19;;;;;;;1165.60;175.53;;;9.10;99.90;;;;;;5080369;28;20297;-50
2023/04/16 03:00:47;;;;;;;1655.07;239.20;;;9.10;99.90;;;;;;5088628;28;20292;-49
2023/04/16 03:03:15;;;;;;;940.30;144.37;;;9.10;99.90;;;;;;5099941;28;20258;-49
2023/04/16 03:05:45;;;;;;;1774.73;267.83;;;9.10;99.90;;;;;;5091613;28;20408;-49
2023/04/16 03:08:13;;;;;;;899.50;130.33;;;9.10;99.90;;;;;;5091175;28;20588;-50
2023/04/16 03:10:41;;;;;;;1231.90;215.57;;;9.10;99.90;;;;;;5083886;28;20236;-49
2023/04/16 03:13:09;;;;;;;653.43;113.87;;;9.20;99.90;;;;;;5088040;28;20309;-50
2023/04/16 03:15:37;;;;;;;269.80;72.97;;;9.20;99.90;;;;;;5077400;28;20224;-50
2023/04/16 03:18:05;;;;;;;410.40;93.83;;;9.20;99.90;;;;;;5091201;28;20255;-50
2023/04/16 03:20:33;;;;;;;445.47;94.57;;;9.20;99.90;;;;;;5091000;28;20208;-50
2023/04/16 03:23:03;;;;;;;980.17;141.30;;;9.20;99.90;;;;;;5094276;28;20257;-50
2023/04/16 03:25:31;;;;;;;115.37;51.60;;;9.30;99.90;;;;;;5098141;28;20236;-50
2023/04/16 03:27:59;;;;;;;1999.90;333.90;;;9.30;99.90;;;;;;5090151;28;20278;-50
2023/04/16 03:30:27;;;;;;;1999.90;296.17;;;9.20;99.90;;;;;;5094910;28;20238;-50
2023/04/16 03:32:55;;;;;;;273.90;76.87;;;9.20;99.90;;;;;;5090823;28;20328;-50
2023/04/16 03:35:23;;;;;;;588.20;99.00;;;9.20;99.90;;;;;;5090651;28;20224;-49
2023/04/16 03:37:51;;;;;;;1842.70;217.37;;;9.20;99.90;;;;;;5090845;28;20208;-49
2023/04/16 03:40:20;;;;;;;1999.90;465.27;;;9.20;99.90;;;;;;5090647;28;20204;-50
2023/04/16 03:42:48;;;;;;;600.23;106.27;;;9.20;99.90;;;;;;5089929;28;20247;-50
2023/04/16 03:45:16;;;;;;;803.17;130.00;;;9.20;99.90;;;;;;5090543;28;20689;-49
2023/04/16 03:47:47;;;;;;;1858.67;224.37;;;9.10;99.90;;;;;;5090189;28;20235;-50
2023/04/16 03:50:15;;;;;;;864.03;137.63;;;9.10;99.90;;;;;;5090654;28;20208;-50
2023/04/16 03:52:43;;;;;;;290.17;67.23;;;9.10;99.90;;;;;;5090174;28;20300;-50
2023/04/16 03:55:11;;;;;;;860.43;124.67;;;9.10;99.90;;;;;;5090651;28;20235;-50
2023/04/16 03:57:41;;;;;;;1989.03;276.93;;;9.10;99.90;;;;;;5090188;28;20963;-49
2023/04/16 04:00:09;;;;;;;1999.90;285.90;;;9.10;99.90;;;;;;5090600;28;20600;-51
2023/04/16 04:02:37;;;;;;;1535.93;177.60;;;9.10;99.90;;;;;;5076403;28;20263;-49
2023/04/16 04:05:06;;;;;;;1079.33;173.83;;;9.00;99.90;;;;;;5090278;28;20226;-49
2023/04/16 04:07:34;;;;;;;1078.70;160.77;;;9.10;99.90;;;;;;5090403;28;20295;-49
2023/04/16 04:10:02;;;;;;;840.40;121.73;;;9.10;99.90;;;;;;5090368;28;20204;-49
2023/04/16 04:12:31;;;;;;;1999.90;276.37;;;9.10;99.90;;;;;;5090085;28;20663;-50
2023/04/16 04:15:00;;;;;;;709.83;137.20;;;9.10;99.90;;;;;;5089704;28;20243;-49
2023/04/16 04:17:28;;;;;;;294.40;77.20;;;9.10;99.90;;;;;;5090014;28;20298;-49
2023/04/16 04:19:57;;;;;;;1999.90;663.60;;;9.10;99.90;;;;;;5089868;28;20682;-49
2023/04/16 04:22:28;;;;;;;1999.90;295.67;;;9.00;99.90;;;;;;5089816;28;20228;-49
2023/04/16 04:24:56;;;;;;;471.53;76.90;;;9.00;99.90;;;;;;5082950;28;20211;-48
2023/04/16 04:27:25;;;;;;;1078.90;157.90;;;9.00;99.90;;;;;;5089721;28;20299;-49
2023/04/16 04:29:53;;;;;;;278.47;67.93;;;9.00;99.90;;;;;;5090071;28;20243;-50
2023/04/16 04:32:23;;;;;;;412.60;96.80;;;9.10;99.90;;;;;;5089687;28;20242;-48
2023/04/16 04:34:51;;;;;;;451.73;83.90;;;9.10;99.90;;;;;;5089615;28;20735;-49
2023/04/16 04:37:19;;;;;;;1066.17;137.43;;;9.10;99.90;;;;;;5075438;28;20234;-50
2023/04/16 04:39:47;;;;;;;1543.30;202.97;;;9.10;99.90;;;;;;5089528;28;20298;-50
2023/04/16 04:42:16;;;;;;;239.43;62.30;;;9.00;99.90;;;;;;5089267;28;20589;-49
2023/04/16 04:44:45;;;;;;;521.80;86.47;;;9.00;99.90;;;;;;5081438;28;20262;-49
2023/04/16 04:47:13;;;;;;;1606.70;194.37;;;9.00;99.90;;;;;;5083852;28;20294;-50
2023/04/16 04:49:43;;;;;;;802.43;133.50;;;9.00;99.90;;;;;;5089478;28;20234;-49
2023/04/16 04:52:11;;;;;;;939.20;140.07;;;8.90;99.90;;;;;;5089041;28;20677;-49
2023/04/16 04:54:40;;;;;;;736.97;112.73;;;8.90;99.90;;;;;;5089194;28;20702;-49
2023/04/16 04:57:08;;;;;;;1999.90;431.40;;;8.90;99.90;;;;;;5089435;28;20265;-49
2023/04/16 04:59:36;;;;;;;1093.17;149.53;;;9.00;99.90;;;;;;5089080;28;20200;-50
2023/04/16 05:02:04;;;;;;;649.97;100.70;;;8.90;99.90;;;;;;5084245;28;20679;-49
2023/04/16 05:04:32;;;;;;;721.57;116.27;;;8.90;99.90;;;;;;5088989;28;20235;-49
2023/04/16 05:07:02;;;;;;;1210.47;165.80;;;9.00;99.90;;;;;;5092491;28;20253;-50
2023/04/16 05:09:30;;;;;;;1999.90;643.30;;;9.00;99.90;;;;;;5093717;28;20291;-49
2023/04/16 05:11:58;;;;;;;919.17;133.27;;;9.00;99.90;;;;;;5089829;28;20287;-50
2023/04/16 05:14:26;;;;;;;1999.90;293.50;;;9.00;99.90;;;;;;5087860;28;20228;-50
2023/04/16 05:16:55;;;;;;;1999.90;546.77;;;9.00;99.90;;;;;;5082883;28;20255;-49
2023/04/16 05:19:24;;;;;;;1999.90;280.27;;;9.00;99.90;;;;;;5088894;28;20279;-49
2023/04/16 05:21:52;;;;;;;1999.90;275.20;;;9.00;99.90;;;;;;5088769;28;20233;-50
2023/04/16 05:24:22;;;;;;;250.97;67.77;;;9.00;99.90;;;;;;5087906;28;20224;-51
2023/04/16 05:26:50;;;;;;;1826.97;222.03;;;9.00;99.90;;;;;;5072086;28;20267;-50
2023/04/16 05:29:18;;;;;;;1829.30;227.33;;;9.10;99.90;;;;;;5078987;28;20267;-49
2023/04/16 05:31:46;;;;;;;1999.90;656.27;;;9.00;99.90;;;;;;5069551;28;20334;-50
2023/04/16 05:34:14;;;;;;;793.73;130.33;;;9.00;99.90;;;;;;5081705;28;20312;-50
2023/04/16 05:36:42;;;;;;;499.77;108.50;;;9.10;99.90;;;;;;5070464;28;20236;-50
2023/04/16 05:39:10;;;;;;;489.30;93.07;;;9.10;99.90;;;;;;5086910;28;20244;-49
2023/04/16 05:41:40;;;;;;;856.50;138.73;;;9.10;99.90;;;;;;5076512;28;20212;-50
2023/04/16 05:44:08;;;;;;;920.57;153.93;;;9.10;99.90;;;;;;5075099;28;20338;-49
2023/04/16 05:46:36;;;;;;;1980.33;239.33;;;9.10;99.90;;;;;;5082717;28;20208;-50
2023/04/16 05:49:04;;;;;;;1404.67;203.50;;;9.20;99.90;;;;;;5088612;28;20200;-49
2023/04/16 05:51:32;;;;;;;1999.90;507.60;;;9.20;99.90;;;;;;5088268;28;20293;-50
2023/04/16 05:54:00;;;;;;;1999.90;302.60;;;9.10;99.90;;;;;;5087807;28;20255;-50
2023/04/16 05:56:28;;;;;;;836.47;125.73;;;9.10;99.90;;;;;;5088448;28;20692;-50
2023/04/16 05:58:57;;;;;;;469.87;89.03;;;9.20;99.90;;;;;;5088089;28;20299;-50
2023/04/16 06:01:25;;;;;;;1080.50;147.17;;;9.20;99.90;;;;;;5088384;28;20291;-50
2023/04/16 06:03:53;;;;;;;1999.90;514.57;;;9.20;99.90;;;;;;5088168;28;20270;-50
2023/04/16 06:06:21;;;;;;;446.63;100.03;;;9.20;99.90;;;;;;5088444;28;20219;-50
2023/04/16 06:08:49;;;;;;;496.10;104.10;;;9.20;99.90;;;;;;5088294;28;20211;-49
2023/04/16 06:11:17;;;;;;;673.40;112.37;;;9.20;99.90;;;;;;5100264;28;20287;-49
2023/04/16 06:13:45;;;;;;;1999.90;301.00;;;9.20;99.90;;;;;;5092359;28;20310;-49
2023/04/16 06:16:15;;;;;;;134.60;56.77;;;9.20;99.90;;;;;;5092228;28;20295;-50
2023/04/16 06:18:43;;;;;;;1302.80;180.27;;;9.30;99.90;;;;;;5092308;28;20590;-50
2023/04/16 06:21:11;;;;;;;1999.90;295.10;;;9.30;99.90;;;;;;5092358;28;20636;-50
2023/04/16 06:23:39;;;;;;;919.30;133.53;;;9.30;99.90;;;;;;5091830;28;20257;-50
2023/04/16 06:26:07;;;;;;;1967.60;267.03;;;9.30;99.90;;;;;;5092003;28;20259;-49
2023/04/16 06:28:35;;;;;;;798.90;131.43;;;9.40;99.90;;;;;;5092058;28;20296;-50
2023/04/16 06:31:03;;;;;;;1999.90;418.10;;;9.40;99.90;;;;;;5092224;28;20210;-50
2023/04/16 06:33:32;;;;;;;415.23;83.27;;;9.50;99.90;;;;;;5091995;28;20226;-51
2023/04/16 06:36:00;;;;;;;1003.50;162.60;;;9.50;99.90;;;;;;5083186;28;20291;-50
2023/04/16 06:38:28;;;;;;;333.20;92.17;;;9.50;99.90;;;;;;5086406;28;20713;-50
2023/04/16 06:40:57;;;;;;;1581.27;224.13;;;9.60;99.90;;;;;;5092036;28;20290;-50
2023/04/16 06:43:25;;;;;;;1999.90;390.10;;;9.60;99.90;;;;;;5091221;28;20323;-49
2023/04/16 06:45:53;;;;;;;672.67;117.13;;;9.60;99.90;;;;;;5079540;28;20250;-50
2023/04/16 06:48:21;;;;;;;1999.90;298.83;;;9.60;99.90;;;;;;5091550;28;20308;-49
2023/04/16 06:50:51;;;;;;;1594.33;224.57;;;9.70;99.90;;;;;;5091433;28;20666;-51
2023/04/16 06:53:19;;;;;;;1999.90;295.93;;;9.80;99.90;;;;;;5091867;28;20311;-50
2023/04/16 06:55:47;;;;;;;1905.23;270.00;;;9.70;99.90;;;;;;5091604;28;20308;-49
2023/04/16 06:58:15;;;;;;;1546.00;223.53;;;9.70;99.90;;;;;;5091540;28;20295;-50
2023/04/16 07:00:43;;;;;;;1999.90;334.20;;;9.70;99.90;;;;;;5091239;28;20258;-49
2023/04/16 07:03:11;;;;;;;1707.87;247.20;;;9.70;99.90;;;;;;5091218;28;20228;-50
2023/04/16 07:05:39;;;;;;;1999.90;374.17;;;9.60;99.90;;;;;;5087770;28;20295;-50
2023/04/16 07:08:09;;;;;;;758.33;115.73;;;9.70;99.90;;;;;;5090936;28;20307;-50
2023/04/16 07:10:38;;;;;;;1501.80;200.03;;;9.70;99.90;;;;;;5090837;28;20208;-50
2023/04/16 07:13:06;;;;;;;1837.63;264.17;;;9.90;99.90;;;;;;5081625;28;20267;-50
2023/04/16 07:15:34;;;;;;;1798.47;271.80;;;9.90;99.90;;;;;;5089419;28;20739;-50
2023/04/16 07:18:02;;;;;;;1999.90;536.20;;;9.90;99.90;;;;;;5090664;28;20262;-50
2023/04/16 07:20:30;;;;;;;1999.90;614.03;;;9.90;99.90;;;;;;5088748;28;20208;-51
2023/04/16 07:22:59;;;;;;;1999.90;364.30;;;9.80;99.90;;;;;;5084869;28;20676;-50
2023/04/16 07:25:28;;;;;;;1791.00;222.00;;;9.70;99.90;;;;;;5090609;28;20285;-49
2023/04/16 07:27:56;;;;;;;1773.07;237.90;;;9.80;99.90;;;;;;5089391;28;20219;-49
2023/04/16 07:30:24;;;;;;;676.77;142.90;;;9.90;99.90;;;;;;5086352;28;20215;-49
2023/04/16 07:32:54;;;;;;;1999.90;589.90;;;9.90;99.90;;;;;;5090529;28;20312;-50
2023/04/16 07:35:22;;;;;;;1999.90;910.27;;;9.90;99.90;;;;;;5090111;28;20204;-49
2023/04/16 07:37:50;;;;;;;1912.47;349.27;;;9.80;99.90;;;;;;5090383;28;20243;-50
2023/04/16 07:40:18;;;;;;;1468.33;230.70;;;9.80;99.90;;;;;;5090017;28;20212;-50
2023/04/16 07:42:48;;;;;;;1999.90;465.30;;;9.90;99.90;;;;;;5089767;28;20232;-49
2023/04/16 07:45:16;;;;;;;1999.90;446.87;;;9.90;99.90;;;;;;5090338;28;20232;-49
2023/04/16 07:47:45;;;;;;;1999.90;352.60;;;10.00;99.90;;;;;;5090001;28;20254;-50
2023/04/16 07:50:15;;;;;;;1999.90;346.27;;;9.90;99.90;;;;;;5090326;28;20201;-50
2023/04/16 07:52:44;;;;;;;1402.87;222.63;;;10.00;99.90;;;;;;5086017;28;20260;-49
2023/04/16 07:55:12;;;;;;;1066.23;180.13;;;9.90;99.90;;;;;;5090242;28;20232;-50
2023/04/16 07:57:40;;;;;;;1999.90;565.67;;;10.00;99.90;;;;;;5089858;28;20235;-50
2023/04/16 08:00:11;;;;;;;1999.90;541.03;;;9.90;99.90;;;;;;5090379;28;20601;-50
2023/04/16 08:02:39;;;;;;;1999.90;290.23;;;9.80;99.90;;;;;;5089654;28;20232;-49
2023/04/16 08:05:07;;;;;;;1999.90;355.60;;;9.80;99.90;;;;;;5089630;28;20304;-50
2023/04/16 08:07:35;;;;;;;1457.47;217.60;;;9.80;99.90;;;;;;5089244;28;20226;-49
2023/04/16 08:10:04;;;;;;;1999.90;344.33;;;9.90;99.90;;;;;;5087345;28;20283;-49
2023/04/16 08:12:32;;;;;;;1290.60;199.03;;;9.90;99.90;;;;;;5089320;28;20208;-50
2023/04/16 08:15:00;;;;;;;1999.90;368.57;;;9.90;99.90;;;;;;5084240;28;20228;-50
2023/04/16 08:17:29;;;;;;;1369.60;196.83;;;10.00;99.90;;;;;;5088125;28;20212;-50
2023/04/16 08:19:57;;;;;;;1073.37;194.80;;;10.00;99.90;;;;;;5087005;28;20602;-50
2023/04/16 08:22:26;;;;;;;1999.90;435.40;;;10.00;99.90;;;;;;5087312;28;20601;-50
2023/04/16 08:24:54;;;;;;;954.43;201.03;;;10.10;99.90;;;;;;5086354;28;20311;-50
2023/04/16 08:27:22;;;;;;;1999.90;273.67;;;10.10;99.90;;;;;;5086992;28;20277;-50
2023/04/16 08:29:50;;;;;;;1999.90;339.43;;;10.20;99.90;;;;;;5093108;28;20246;-50
2023/04/16 08:32:18;;;;;;;1795.57;236.43;;;10.10;99.90;;;;;;5095193;28;20291;-50
2023/04/16 08:34:47;;;;;;;305.90;100.90;;;10.10;99.90;;;;;;5093700;28;20200;-51
2023/04/16 08:37:15;;;;;;;1999.90;368.47;;;10.20;99.90;;;;;;5074103;28;20251;-50
2023/04/16 08:39:43;;;;;;;1636.87;232.77;;;10.30;99.90;;;;;;5090057;28;20291;-49
2023/04/16 08:42:16;;;;;;;1752.27;299.40;;;10.20;99.90;;;;;;5089350;28;20242;-50
2023/04/16 08:44:48;;;;;;;1668.47;237.83;;;10.20;99.90;;;;;;5089856;28;20250;-50
2023/04/16 08:47:16;;;;;;;1633.60;210.47;;;10.20;99.90;;;;;;5075988;28;20739;-50
2023/04/16 08:49:45;;;;;;;1999.90;359.57;;;10.20;99.90;;;;;;5089336;28;20208;-50
2023/04/16 08:52:19;;;;;;;1999.90;775.73;;;10.30;99.90;;;;;;5088163;28;20295;-49
2023/04/16 08:54:57;;;;;;;1590.03;246.20;;;10.30;99.90;;;;;;5087009;28;20257;-49
2023/04/16 08:57:30;;;;;;;717.67;139.30;;;10.10;99.90;;;;;;5085097;28;20239;-49
2023/04/16 08:59:59;;;;;;;1999.90;329.10;;;10.10;99.90;;;;;;5088977;28;20204;-50
2023/04/16 09:02:28;;;;;;;714.13;146.80;;;10.20;99.90;;;;;;5089028;28;20242;-50
2023/04/16 09:04:59;;;;;;;404.60;81.33;;;10.20;99.90;;;;;;5089018;28;20224;-51
2023/04/16 09:07:29;;;;;;;1440.43;194.83;;;10.20;99.90;;;;;;5086401;28;20689;-49
2023/04/16 09:09:59;;;;;;;1948.67;265.73;;;10.10;99.90;;;;;;5089260;28;20239;-50
2023/04/16 09:12:27;;;;;;;1228.10;198.57;;;10.10;99.90;;;;;;5088095;28;20269;-50
2023/04/16 09:14:58;;;;;;;1999.90;589.97;;;10.20;99.90;;;;;;5089344;28;20287;-50
2023/04/16 09:17:27;;;;;;;1999.90;729.20;;;10.00;99.90;;;;;;5088849;28;20239;-50
2023/04/16 09:19:55;;;;;;;1483.20;209.57;;;10.00;99.90;;;;;;5088992;28;20200;-49
2023/04/16 09:22:23;;;;;;;1999.90;414.63;;;10.00;99.90;;;;;;5088660;28;20218;-50
2023/04/16 09:24:52;;;;;;;1999.90;775.20;;;10.00;99.90;;;;;;5088561;28;20252;-50
2023/04/16 09:27:21;;;;;;;1999.90;471.03;;;9.90;99.90;;;;;;5088945;28;20299;-50
2023/04/16 09:29:52;;;;;;;1999.90;439.27;;;9.80;99.90;;;;;;5088554;28;20238;-50
2023/04/16 09:32:26;;;;;;;1999.90;498.53;;;9.80;99.90;;;;;;5088965;28;20240;-48
2023/04/16 09:34:57;;;;;;;1999.90;408.87;;;9.80;99.90;;;;;;5088898;28;20211;-50
2023/04/16 09:37:26;;;;;;;1421.47;220.07;;;9.70;99.90;;;;;;5074851;28;20683;-49
2023/04/16 09:39:57;;;;;;;1999.90;392.53;;;9.70;99.90;;;;;;5088686;28;20299;-49
2023/04/16 09:42:27;;;;;;;1999.90;384.00;;;9.80;99.90;;;;;;5088365;28;20204;-49
2023/04/16 09:44:56;;;;;;;1999.90;589.73;;;9.70;99.90;;;;;;5088357;28;20626;-48
2023/04/16 09:47:39;;;;;;;1552.73;232.03;;;9.70;99.90;;;;;;5092083;28;20219;-50
2023/04/16 09:50:09;;;;;;;1999.90;521.43;;;9.70;99.90;;;;;;5092430;28;20304;-49
2023/04/16 09:52:40;;;;;;;1999.90;513.47;;;9.70;99.90;;;;;;5092805;28;20238;-50
2023/04/16 09:55:09;;;;;;;838.10;157.77;;;9.70;99.90;;;;;;5092660;28;20251;-49
2023/04/16 09:57:38;;;;;;;921.03;196.10;;;9.60;99.90;;;;;;5089637;28;20287;-49
2023/04/16 10:00:08;;;;;;;1999.90;543.57;;;9.70;99.90;;;;;;5082286;28;20214;-49
2023/04/16 10:02:40;;;;;;;1999.90;644.20;;;9.60;99.90;;;;;;5096785;28;20801;-50
2023/04/16 10:05:09;;;;;;;1375.83;216.87;;;9.70;99.90;;;;;;5087420;28;20216;-50
2023/04/16 10:07:38;;;;;;;1482.73;235.40;;;9.80;99.90;;;;;;5090401;28;20308;-49
2023/04/16 10:10:07;;;;;;;634.53;158.43;;;10.00;99.90;;;;;;5090460;28;20215;-51
2023/04/16 10:12:36;;;;;;;1999.90;586.83;;;10.10;99.90;;;;;;5092345;28;20279;-49
2023/04/16 10:15:05;;;;;;;1999.90;390.47;;;10.20;99.90;;;;;;5081672;28;20219;-50
2023/04/16 10:17:33;;;;;;;1999.90;332.70;;;10.20;99.90;;;;;;5081992;28;20234;-49
2023/04/16 10:20:02;;;;;;;1520.40;284.57;;;10.20;99.90;;;;;;5085891;28;20204;-49
2023/04/16 10:22:31;;;;;;;1889.80;287.63;;;10.30;99.90;;;;;;5090137;28;20750;-49
2023/04/16 10:24:59;;;;;;;1792.67;237.33;;;10.30;99.90;;;;;;5090126;28;20628;-49
2023/04/16 10:27:27;;;;;;;1133.57;236.37;;;10.30;99.90;;;;;;5090090;28;20200;-50
2023/04/16 10:29:57;;;;;;;1999.90;479.17;;;10.50;99.90;;;;;;5090315;28;20291;-50
2023/04/16 10:32:27;;;;;;;1999.90;371.37;;;10.50;99.90;;;;;;5090768;28;20284;-50
2023/04/16 10:34:55;;;;;;;1999.90;490.03;;;10.60;99.90;;;;;;5091651;28;20200;-50
2023/04/16 10:37:30;;;;;;;1999.90;421.83;;;10.60;99.90;;;;;;5077693;28;20291;-50
2023/04/16 10:39:58;;;;;;;1772.03;317.80;;;10.60;99.90;;;;;;5091970;28;20204;-50
2023/04/16 10:42:26;;;;;;;1999.90;509.33;;;10.60;99.90;;;;;;5091343;28;20207;-50
2023/04/16 10:44:54;;;;;;;1519.57;250.40;;;10.50;99.90;;;;;;5091810;28;20297;-50
2023/04/16 10:47:25;;;;;;;1999.90;587.10;;;10.50;99.90;;;;;;5091644;28;20314;-50
2023/04/16 10:49:54;;;;;;;1999.90;688.77;;;10.50;99.90;;;;;;5092093;28;20204;-50
2023/04/16 10:52:23;;;;;;;1675.70;293.07;;;10.40;99.90;;;;;;5091463;28;20236;-49
2023/04/16 10:54:54;;;;;;;1999.90;595.77;;;10.40;99.90;;;;;;5091817;28;20630;-50
2023/04/16 10:57:22;;;;;;;1999.90;334.13;;;10.40;99.90;;;;;;5091052;28;20201;-49
2023/04/16 10:59:50;;;;;;;1999.90;567.63;;;10.40;99.90;;;;;;5091460;28;20201;-49
2023/04/16 11:02:19;;;;;;;1999.90;471.53;;;10.60;99.90;;;;;;5090875;28;20315;-50
2023/04/16 11:04:49;;;;;;;1999.90;336.03;;;10.50;99.90;;;;;;5091348;28;20204;-50
2023/04/16 11:07:19;;;;;;;1605.00;291.13;;;10.60;99.90;;;;;;5083908;28;20224;-50
2023/04/16 11:09:59;;;;;;;1997.27;345.40;;;10.60;99.90;;;;;;5077188;28;20224;-50
2023/04/16 11:12:33;;;;;;;1545.53;248.50;;;10.60;99.90;;;;;;5085905;28;20616;-49
2023/04/16 11:15:02;;;;;;;1515.07;288.10;;;10.70;99.90;;;;;;5086701;28;20236;-49
2023/04/16 11:17:34;;;;;;;1999.90;363.70;;;10.70;99.90;;;;;;5080064;28;20205;-49
2023/04/16 11:20:05;;;;;;;1999.90;459.73;;;10.80;99.90;;;;;;5085103;28;20215;-50
2023/04/16 11:22:47;;;;;;;1584.47;285.77;;;10.80;99.90;;;;;;5081458;28;20236;-52
2023/04/16 11:25:19;;;;;;;1999.90;481.30;;;10.90;99.90;;;;;;5090904;28;20687;-50
2023/04/16 11:27:48;;;;;;;1999.90;398.23;;;11.00;99.90;;;;;;5091034;28;20205;-50
2023/04/16 11:30:16;;;;;;;1999.90;421.43;;;11.20;99.90;;;;;;5084624;28;20228;-51
2023/04/16 11:32:45;;;;;;;1999.90;650.27;;;11.40;99.90;;;;;;5088309;28;20228;-50
2023/04/16 11:35:17;;;;;;;1999.90;742.80;;;11.50;99.90;;;;;;5085532;28;20269;-50
2023/04/16 11:37:47;;;;;;;1999.90;519.63;;;11.60;99.90;;;;;;5088456;28;20224;-50
2023/04/16 11:40:15;;;;;;;1999.90;719.47;;;11.60;99.90;;;;;;5088501;28;20253;-52
2023/04/16 11:42:43;;;;;;;1999.90;631.50;;;11.70;99.90;;;;;;5083003;28;20220;-50
2023/04/16 11:45:12;;;;;;;1999.90;658.63;;;11.70;99.90;;;;;;5090507;28;20213;-51
2023/04/16 11:47:45;;;;;;;1999.90;903.77;;;11.70;99.90;;;;;;5089086;28;20314;-51
2023/04/16 11:50:23;;;;;;;1999.90;574.33;;;11.80;99.90;;;;;;5088076;28;20215;-51
2023/04/16 11:52:52;;;;;;;1999.90;985.33;;;11.80;99.90;;;;;;5093403;28;20237;-51
2023/04/16 11:55:21;;;;;;;1999.90;713.17;;;11.80;99.90;;;;;;5093066;28;20208;-51
2023/04/16 11:57:49;;;;;;;1999.90;721.17;;;11.90;99.90;;;;;;5075550;28;20753;-51
2023/04/16 12:00:21;;;;;;;1999.90;616.53;;;12.00;99.90;;;;;;5096298;28;20253;-51
2023/04/16 12:02:53;;;;;;;1999.90;626.40;;;12.10;99.90;;;;;;5100757;28;20223;-50
2023/04/16 12:05:33;;;;;;;1999.90;591.97;;;12.20;99.90;;;;;;5090424;28;20212;-52
2023/04/16 12:08:03;;;;;;;1999.90;720.10;;;12.20;99.90;;;;;;5094428;28;20220;-51
2023/04/16 12:10:33;;;;;;;1999.90;594.70;;;12.30;99.90;;;;;;5085145;28;20691;-51
2023/04/16 12:13:12;;;;;;;1999.90;915.20;;;12.30;99.90;;;;;;5090661;28;20761;-51
2023/04/16 12:15:47;;;;;;;1999.90;664.93;;;12.20;99.90;;;;;;5097930;28;20208;-51